Time;durP1;ratioP1;P1;durP2;ratioP2;P2;SDS_P1;SDS_P2;PMS_P1;PMS_P2;Temp;Humidity;BMP_temperature;BMP_pressure;BME280_temperature;BME280_humidity;BME280_pressure;Samples;Min_cycle;Max_cycle;Signal;HPM_P1;HPM_P2
2023/10/03 00:01:00;;;;;;;;;;;;;;;;;;6300598;22;19903;-96
2023/10/03 00:03:29;;;;;;;;;;;;;;;;;;6290509;22;19887;-96
2023/10/03 00:05:55;;;;;;;;;;;;;;;;;;6296895;22;19903;-95
2023/10/03 00:08:44;;;;;;;;;;;;;;;;;;6298310;22;20446;-96
2023/10/03 00:11:08;;;;;;;;;;;;;;;;;;6320977;22;19903;-96
2023/10/03 00:13:37;;;;;;;;;;;;;;;;;;6291925;22;19903;-95
2023/10/03 00:16:08;;;;;;;;;;;;;;;;;;6301452;22;19910;-96
2023/10/03 00:18:37;;;;;;;;;;;;;;;;;;6290560;22;19911;-96
2023/10/03 00:21:12;;;;;;;;;;;;;;;;;;6299912;22;20053;-96
2023/10/03 00:23:48;;;;;;;;;;;;;;;;;;6316846;22;19906;-96
2023/10/03 00:26:22;;;;;;;;;;;;;;;;;;6303177;22;19911;-96
2023/10/03 00:28:53;;;;;;;;;;;;;;;;;;6297145;22;19903;-96
2023/10/03 00:31:21;;;;;;;;;;;;;;;;;;6299625;22;19907;-96
2023/10/03 00:33:50;;;;;;;;;;;;;;;;;;6311409;22;19891;-96
2023/10/03 00:38:52;;;;;;;;;;;;;;;;;;6294607;22;19971;-96
2023/10/03 00:41:33;;;;;;;;;;;;;;;;;;;;;
2023/10/03 00:54:41;;;;;;;;;;;;;;;;;;6302468;22;20517;-96
2023/10/03 01:02:21;;;;;;;;;;;;;;;;;;6303895;22;19923;-96
2023/10/03 01:04:49;;;;;;;;;;;;;;;;;;6300244;22;19910;-96
2023/10/03 01:07:15;;;;;;;;;;;;;;;;;;6296357;22;19929;-96
2023/10/03 01:09:44;;;;;;;;;;;;;;;;;;6292512;22;19899;-96
2023/10/03 01:15:03;;;;;;;;;;;;;;;;;;6325829;22;20391;-94
2023/10/03 01:17:32;;;;;;;;;;;;;;;;;;6295324;22;19958;-96
2023/10/03 01:20:08;;;;;;;;;;;;;;;;;;;;;
2023/10/03 01:22:39;;;;;;;;;;;;;;;;;;6320518;22;19925;-96
2023/10/03 01:25:11;;;;;;;;;;;;;;;;;;6321682;22;19902;-96
2023/10/03 01:27:43;;;;;;;;;;;;;;;;;;6296507;22;19970;-96
2023/10/03 01:30:12;;;;;;;;;;;;;;;;;;6306148;22;19907;-96
2023/10/03 01:32:41;;;;;;;;;;;;;;;;;;6299956;22;20313;-96
2023/10/03 01:35:11;;;;;;;;;;;;;;;;;;6293974;22;19903;-96
2023/10/03 01:37:38;;;;;;;;;;;;;;;;;;6296770;22;19933;-94
2023/10/03 01:40:13;;;;;;;;;;;;;;;;;;6297997;22;19903;-96
2023/10/03 01:42:45;;;;;;;;;;;;;;;;;;6298175;22;19910;-96
2023/10/03 01:45:13;;;;;;;;;;;;;;;;;;6290891;22;19903;-96
2023/10/03 01:47:42;;;;;;;;;;;;;;;;;;6298510;22;19907;-96
2023/10/03 01:52:56;;;;;;;;;;;;;;;;;;6298973;22;20374;-96
2023/10/03 01:55:24;;;;;;;;;;;;;;;;;;6291886;22;19903;-95
2023/10/03 01:57:53;;;;;;;;;;;;;;;;;;6299542;22;19974;-96
2023/10/03 02:00:25;;;;;;;;;;;;;;;;;;6293211;22;19903;-96
2023/10/03 02:02:52;;;;;;;;;;;;;;;;;;6292302;22;19938;-96
2023/10/03 02:05:28;;;;;;;;;;;;;;;;;;6289007;22;19907;-96
2023/10/03 02:10:50;;;;;;;;;;;;;;;;;;6298287;22;19959;-96
2023/10/03 02:13:17;;;;;;;;;;;;;;;;;;6305364;22;19899;-96
2023/10/03 02:15:44;;;;;;;;;;;;;;;;;;6304928;22;19935;-96
2023/10/03 02:18:13;;;;;;;;;;;;;;;;;;6300610;22;19918;-96
2023/10/03 02:20:47;;;;;;;;;;;;;;;;;;6284441;22;20146;-95
2023/10/03 02:23:17;;;;;;;;;;;;;;;;;;6289987;22;19919;-96
2023/10/03 02:26:05;;;;;;;;;;;;;;;;;;6289357;22;19911;-96
2023/10/03 02:28:40;;;;;;;;;;;;;;;;;;6283008;22;19903;-96
2023/10/03 02:31:10;;;;;;;;;;;;;;;;;;6294460;22;19903;-95
2023/10/03 02:33:36;;;;;;;;;;;;;;;;;;6296169;22;19926;-95
2023/10/03 02:36:04;;;;;;;;;;;;;;;;;;6282722;22;20308;-95
2023/10/03 02:38:35;;;;;;;;;;;;;;;;;;6280926;22;20001;-96
2023/10/03 02:41:01;;;;;;;;;;;;;;;;;;6283960;22;19904;-95
2023/10/03 02:43:27;;;;;;;;;;;;;;;;;;6283944;22;19956;-95
2023/10/03 02:45:53;;;;;;;;;;;;;;;;;;6287577;22;19903;-95
2023/10/03 02:48:22;;;;;;;;;;;;;;;;;;6281025;22;20335;-96
2023/10/03 02:50:51;;;;;;;;;;;;;;;;;;6284502;22;19903;-96
2023/10/03 02:53:20;;;;;;;;;;;;;;;;;;6283154;22;19908;-95
2023/10/03 02:55:46;;;;;;;;;;;;;;;;;;6303657;22;19899;-93
2023/10/03 02:58:17;;;;;;;;;;;;;;;;;;6298273;22;19911;-95
2023/10/03 03:00:43;;;;;;;;;;;;;;;;;;6281939;22;20321;-94
2023/10/03 03:03:10;;;;;;;;;;;;;;;;;;6280249;22;19919;-95
2023/10/03 03:05:38;;;;;;;;;;;;;;;;;;6284511;22;19903;-96
2023/10/03 03:10:42;;;;;;;;;;;;;;;;;;6283933;22;19909;-95
2023/10/03 03:13:12;;;;;;;;;;;;;;;;;;6286218;22;19927;-95
2023/10/03 03:15:38;;;;;;;;;;;;;;;;;;6287221;22;19903;-94
2023/10/03 03:18:04;;;;;;;;;;;;;;;;;;6287354;22;19997;-95
2023/10/03 03:20:37;;;;;;;;;;;;;;;;;;6288256;22;20202;-96
2023/10/03 03:23:03;;;;;;;;;;;;;;;;;;6287844;22;19933;-95
2023/10/03 03:25:38;;;;;;;;;;;;;;;;;;6289124;22;19907;-95
2023/10/03 03:28:13;;;;;;;;;;;;;;;;;;6287984;22;19903;-96
2023/10/03 03:30:45;;;;;;;;;;;;;;;;;;6289492;22;19903;-96
2023/10/03 03:33:11;;;;;;;;;;;;;;;;;;6288705;22;19986;-95
2023/10/03 03:35:40;;;;;;;;;;;;;;;;;;6291635;22;19910;-94
2023/10/03 03:38:14;;;;;;;;;;;;;;;;;;6299126;22;19911;-95
2023/10/03 03:40:45;;;;;;;;;;;;;;;;;;6292810;22;19903;-96
2023/10/03 03:43:12;;;;;;;;;;;;;;;;;;6288760;22;19913;-96
2023/10/03 03:45:39;;;;;;;;;;;;;;;;;;6290858;22;19973;-96
2023/10/03 03:48:06;;;;;;;;;;;;;;;;;;6287501;22;19930;-95
2023/10/03 03:50:34;;;;;;;;;;;;;;;;;;6289335;22;19903;-96
2023/10/03 03:53:02;;;;;;;;;;;;;;;;;;6282709;22;19919;-96
2023/10/03 03:58:17;;;;;;;;;;;;;;;;;;;;;
2023/10/03 04:03:14;;;;;;;;;;;;;;;;;;6310350;22;19919;-96
2023/10/03 04:05:47;;;;;;;;;;;;;;;;;;6286672;22;19968;-96
2023/10/03 04:08:14;;;;;;;;;;;;;;;;;;6279593;22;20228;-95
2023/10/03 04:13:10;;;;;;;;;;;;;;;;;;6311928;22;19934;-95
2023/10/03 04:15:37;;;;;;;;;;;;;;;;;;6298239;22;19899;-95
2023/10/03 04:18:09;;;;;;;;;;;;;;;;;;6337107;22;19969;-94
2023/10/03 04:20:44;;;;;;;;;;;;;;;;;;6305816;22;19942;-95
2023/10/03 04:23:11;;;;;;;;;;;;;;;;;;6291802;22;20232;-95
2023/10/03 04:25:39;;;;;;;;;;;;;;;;;;6292626;22;19907;-95
2023/10/03 04:28:16;;;;;;;;;;;;;;;;;;6283070;22;19895;-96
2023/10/03 04:30:42;;;;;;;;;;;;;;;;;;6247405;23;19927;-96
2023/10/03 04:33:08;;;;;;;;;;;;;;;;;;6244401;23;19950;-96
2023/10/03 04:35:34;;;;;;;;;;;;;;;;;;6243165;23;19948;-95
2023/10/03 04:38:00;;;;;;;;;;;;;;;;;;6243560;23;19912;-95
2023/10/03 04:40:33;;;;;;;;;;;;;;;;;;6246008;23;19914;-94
2023/10/03 04:43:00;;;;;;;;;;;;;;;;;;6245861;23;19912;-94
2023/10/03 04:45:47;;;;;;;;;;;;;;;;;;6245260;23;19908;-93
2023/10/03 04:48:12;;;;;;;;;;;;;;;;;;6219608;23;19904;-93
2023/10/03 04:50:47;;;;;;;;;;;;;;;;;;6246362;23;20217;-93
2023/10/03 04:56:01;;;;;;;;;;;;;;;;;;6321587;22;19923;-96
2023/10/03 05:01:14;;;;;;;;;;;;;;;;;;6291698;22;19903;-95
2023/10/03 05:03:40;;;;;;;;;;;;;;;;;;6284719;22;19987;-95
2023/10/03 05:09:05;;;;;;;;;;;;;;;;;;6313715;22;19994;-95
2023/10/03 05:11:34;;;;;;;;;;;;;;;;;;6220217;22;19919;-95
2023/10/03 05:14:00;;;;;;;;;;;;;;;;;;6254638;22;19899;-95
2023/10/03 05:16:26;;;;;;;;;;;;;;;;;;6257409;22;19903;-94
2023/10/03 05:21:43;;;;;;;;;;;;;;;;;;6249750;22;19897;-93
2023/10/03 05:24:15;;;;;;;;;;;;;;;;;;6269340;22;19914;-93
2023/10/03 05:26:41;;;;;;;;;;;;;;;;;;6261841;22;19923;-93
2023/10/03 05:29:07;;;;;;;;;;;;;;;;;;6253692;22;19953;-94
2023/10/03 05:31:40;;;;;;;;;;;;;;;;;;6254701;22;20340;-94
2023/10/03 05:34:09;;;;;;;;;;;;;;;;;;6257115;22;19903;-94
2023/10/03 05:36:44;;;;;;;;;;;;;;;;;;6254052;22;19931;-95
2023/10/03 05:39:11;;;;;;;;;;;;;;;;;;6255170;22;19911;-94
2023/10/03 05:41:40;;;;;;;;;;;;;;;;;;6253232;22;19946;-93
2023/10/03 05:46:56;;;;;;;;;;;;;;;;;;6283772;22;19911;-95
2023/10/03 05:52:08;;;;;;;;;;;;;;;;;;6161427;23;20060;-93
2023/10/03 05:54:37;;;;;;;;;;;;;;;;;;6235923;22;19903;-93
2023/10/03 05:59:48;;;;;;;;;;;;;;;;;;6282799;22;19915;-93
2023/10/03 06:04:59;;;;;;;;;;;;;;;;;;6286263;22;20331;-95
2023/10/03 06:07:25;;;;;;;;;;;;;;;;;;6260086;22;19929;-93
2023/10/03 06:10:00;;;;;;;;;;;;;;;;;;6286447;22;20365;-94
2023/10/03 06:12:35;;;;;;;;;;;;;;;;;;6286117;22;19931;-90
2023/10/03 06:15:04;;;;;;;;;;;;;;;;;;6281780;22;19898;-91
2023/10/03 06:17:35;;;;;;;;;;;;;;;;;;6281810;22;19918;-91
2023/10/03 06:20:04;;;;;;;;;;;;;;;;;;6283593;22;19947;-91
2023/10/03 06:22:32;;;;;;;;;;;;;;;;;;6246476;23;19904;-90
2023/10/03 06:24:59;;;;;;;;;;;;;;;;;;6245505;23;19977;-90
2023/10/03 06:27:26;;;;;;;;;;;;;;;;;;6220002;23;19903;-90
2023/10/03 06:32:39;;;;;;;;;;;;;;;;;;6246421;23;20259;-90
2023/10/03 06:35:09;;;;;;;;;;;;;;;;;;6245522;23;19911;-95
2023/10/03 06:40:40;;;;;;;;;;;;;;;;;;6187740;23;19966;-91
2023/10/03 06:43:06;;;;;;;;;;;;;;;;;;6162358;23;19978;-90
2023/10/03 06:45:32;;;;;;;;;;;;;;;;;;6162115;23;19904;-90
2023/10/03 06:48:03;;;;;;;;;;;;;;;;;;6163741;23;19909;-91
2023/10/03 06:50:29;;;;;;;;;;;;;;;;;;6178215;23;19908;-90
2023/10/03 06:52:55;;;;;;;;;;;;;;;;;;6232276;22;19948;-92
2023/10/03 07:55:35;;;;;;;;;;;;;;;;;;;;;
2023/10/03 08:01:13;;;;;;;;;;;;;;;;;;6189947;23;19916;-95
2023/10/03 08:06:26;;;;;;;;;;;;;;;;;;6136560;23;20326;-95
2023/10/03 08:14:24;;;;;;;;;;;;;;;;;;6131594;23;20025;-96
2023/10/03 08:22:41;;;;;;;;;;;;;;;;;;6163811;22;19925;-94
2023/10/03 08:25:07;;;;;;;;;;;;;;;;;;6286618;22;19934;-95
2023/10/03 08:27:33;;;;;;;;;;;;;;;;;;6285571;22;19903;-95
2023/10/03 08:30:01;;;;;;;;;;;;;;;;;;6295524;22;19910;-96
2023/10/03 08:32:39;;;;;;;;;;;;;;;;;;6310156;22;19906;-95
2023/10/03 08:35:08;;;;;;;;;;;;;;;;;;6300148;22;19926;-95
2023/10/03 08:37:44;;;;;;;;;;;;;;;;;;;;;
2023/10/03 08:43:08;;;;;;;;;;;;;;;;;;;;;
2023/10/03 08:51:32;;;;;;;;;;;;;;;;;;6227615;23;20234;-95
2023/10/03 09:22:00;;;;;;;;;;;;;;;;;;6309697;22;19944;-88
2023/10/03 09:24:26;;;;;;;;;;;;;;;;;;6282606;22;19990;-88
2023/10/03 09:26:52;;;;;;;;;;;;;;;;;;6282634;22;19899;-88
2023/10/03 09:59:55;;;;;;;;;;;;;;;;;;6194850;23;19935;-94
2023/10/03 10:02:46;;;;;;;;;;;;;;;;;;6185933;22;20044;-94
2023/10/03 10:08:06;;;;;;;;;;;;;;;;;;6313548;22;19914;-91
2023/10/03 10:10:41;;;;;;;;;;;;;;;;;;6289069;22;20223;-92
2023/10/03 10:15:54;;;;;;;;;;;;;;;;;;6314009;22;19921;-93
2023/10/03 10:21:17;;;;;;;;;;;;;;;;;;6315428;22;19914;-93
2023/10/03 10:23:43;;;;;;;;;;;;;;;;;;6285425;22;20370;-94
2023/10/03 10:26:09;;;;;;;;;;;;;;;;;;6285427;22;19907;-92
2023/10/03 10:28:37;;;;;;;;;;;;;;;;;;6284171;22;19903;-93
2023/10/03 10:33:55;;;;;;;;;;;;;;;;;;6309786;22;19910;-96
2023/10/03 10:39:05;;;;;;;;;;;;;;;;;;6245745;23;19918;-93
2023/10/03 10:41:31;;;;;;;;;;;;;;;;;;6250188;23;19904;-95
2023/10/03 10:44:05;;;;;;;;;;;;;;;;;;6250543;23;20368;-93
2023/10/03 10:46:35;;;;;;;;;;;;;;;;;;6249509;23;19903;-95
2023/10/03 10:49:06;;;;;;;;;;;;;;;;;;6222539;23;19904;-93
2023/10/03 10:51:32;;;;;;;;;;;;;;;;;;6221575;23;19904;-93
2023/10/03 10:54:07;;;;;;;;;;;;;;;;;;6222121;23;19927;-94
2023/10/03 10:59:14;;;;;;;;;;;;;;;;;;6286594;22;19926;-93
2023/10/03 11:18:18;;;;;;;;;;;;;;;;;;6318776;22;20024;-96
2023/10/03 11:20:47;;;;;;;;;;;;;;;;;;6319942;22;19903;-95
2023/10/03 11:26:00;;;;;;;;;;;;;;;;;;6280011;22;19926;-95
2023/10/03 11:28:28;;;;;;;;;;;;;;;;;;6245204;22;19927;-93
2023/10/03 11:30:54;;;;;;;;;;;;;;;;;;6264312;22;20893;-92
2023/10/03 11:35:56;;;;;;;;;;;;;;;;;;6309987;22;19919;-91
2023/10/03 11:38:25;;;;;;;;;;;;;;;;;;6289814;22;20244;-92
2023/10/03 11:41:08;;;;;;;;;;;;;;;;;;6284574;22;20373;-93
2023/10/03 11:43:40;;;;;;;;;;;;;;;;;;6285739;22;19909;-92
2023/10/03 11:51:43;;;;;;;;;;;;;;;;;;6312417;22;20326;-92
2023/10/03 11:57:09;;;;;;;;;;;;;;;;;;6319000;22;19999;-93
2023/10/03 12:04:56;;;;;;;;;;;;;;;;;;6303204;22;19925;-95
2023/10/03 12:10:16;;;;;;;;;;;;;;;;;;6322753;22;19925;-95
2023/10/03 12:12:45;;;;;;;;;;;;;;;;;;6295718;22;19907;-95
2023/10/03 12:15:54;;;;;;;;;;;;;;;;;;6289894;22;19945;-95
2023/10/03 12:18:00;;;;;;;;;;;;;;;;;;6295782;22;19918;-94
2023/10/03 12:20:33;;;;;;;;;;;;;;;;;;6283819;22;19907;-94
2023/10/03 12:22:59;;;;;;;;;;;;;;;;;;6284218;22;19903;-96
2023/10/03 12:25:37;;;;;;;;;;;;;;;;;;6284632;22;19903;-96
2023/10/03 12:28:07;;;;;;;;;;;;;;;;;;6285531;22;19903;-95
2023/10/03 12:31:27;;;;;;;;;;;;;;;;;;;;;
2023/10/03 12:33:30;;;;;;;;;;;;;;;;;;6288031;22;19986;-93
2023/10/03 12:35:56;;;;;;;;;;;;;;;;;;6286141;22;19907;-91
2023/10/03 12:38:22;;;;;;;;;;;;;;;;;;6288120;22;19918;-92
2023/10/03 12:40:54;;;;;;;;;;;;;;;;;;6286707;22;19930;-93
2023/10/03 12:48:50;;;;;;;;;;;;;;;;;;6316683;22;19925;-92
2023/10/03 12:51:15;;;;;;;;;;;;;;;;;;6288686;22;20000;-92
2023/10/03 12:53:41;;;;;;;;;;;;;;;;;;6287963;22;20316;-96
2023/10/03 12:58:59;;;;;;;;;;;;;;;;;;6312920;22;19941;-92
2023/10/03 13:01:25;;;;;;;;;;;;;;;;;;6286134;22;19937;-92
2023/10/03 13:03:55;;;;;;;;;;;;;;;;;;6282807;22;19903;-92
2023/10/03 13:09:09;;;;;;;;;;;;;;;;;;6278850;22;19910;-92
2023/10/03 13:11:38;;;;;;;;;;;;;;;;;;6278161;22;19903;-94
2023/10/03 13:17:13;;;;;;;;;;;;;;;;;;6187753;23;19988;-93
2023/10/03 13:19:45;;;;;;;;;;;;;;;;;;6160679;23;19905;-92
2023/10/03 15:14:13;;;;;;;;;;;;;;;;;;5437198;22;19361256;-95
2023/10/03 15:16:51;;;;;;;;;;;;;;;;;;6255989;22;20245;-91
2023/10/03 15:19:20;;;;;;;;;;;;;;;;;;6258378;22;20305;-92
2023/10/03 15:21:46;;;;;;;;;;;;;;;;;;6254533;22;19903;-90
2023/10/03 15:24:15;;;;;;;;;;;;;;;;;;6254444;22;19997;-96
2023/10/03 15:26:47;;;;;;;;;;;;;;;;;;6256316;22;19903;-93
2023/10/03 15:32:03;;;;;;;;;;;;;;;;;;6167635;23;19913;-94
2023/10/03 15:39:51;;;;;;;;;;;;;;;;;;6321679;22;19913;-93
2023/10/03 15:47:51;;;;;;;;;;;;;;;;;;6323180;22;20239;-94
2023/10/03 15:58:34;;;;;;;;;;;;;;;;;;6321626;22;19917;-95
2023/10/03 16:01:04;;;;;;;;;;;;;;;;;;6291661;22;19914;-93
2023/10/03 16:03:31;;;;;;;;;;;;;;;;;;6290759;22;19903;-94
2023/10/03 16:06:13;;;;;;;;;;;;;;;;;;6290823;22;20001;-95
2023/10/03 16:08:39;;;;;;;;;;;;;;;;;;6287603;22;19903;-92
2023/10/03 16:11:11;;;;;;;;;;;;;;;;;;6283865;22;19903;-95
2023/10/03 16:13:37;;;;;;;;;;;;;;;;;;6289543;22;19931;-96
2023/10/03 16:16:09;;;;;;;;;;;;;;;;;;6292611;22;19903;-95
2023/10/03 16:18:38;;;;;;;;;;;;;;;;;;6289833;22;19910;-94
2023/10/03 16:21:14;;;;;;;;;;;;;;;;;;6289486;22;19909;-95
2023/10/03 16:23:42;;;;;;;;;;;;;;;;;;6285761;22;19973;-94
2023/10/03 16:26:08;;;;;;;;;;;;;;;;;;6286359;22;19981;-96
2023/10/03 16:28:35;;;;;;;;;;;;;;;;;;6284691;22;19903;-93
2023/10/03 16:31:01;;;;;;;;;;;;;;;;;;6277879;22;19910;-95
2023/10/03 16:33:34;;;;;;;;;;;;;;;;;;6284672;22;19903;-94
2023/10/03 16:36:00;;;;;;;;;;;;;;;;;;6284635;22;19914;-93
2023/10/03 16:38:26;;;;;;;;;;;;;;;;;;6285331;22;19915;-94
2023/10/03 16:40:55;;;;;;;;;;;;;;;;;;6285312;22;19910;-93
2023/10/03 16:43:24;;;;;;;;;;;;;;;;;;6286118;22;19903;-95
2023/10/03 16:45:54;;;;;;;;;;;;;;;;;;6282282;22;19906;-96
2023/10/03 16:48:23;;;;;;;;;;;;;;;;;;6285853;22;19924;-94
2023/10/03 16:50:52;;;;;;;;;;;;;;;;;;6285804;22;19907;-94
2023/10/03 16:53:18;;;;;;;;;;;;;;;;;;6250982;23;19912;-94
2023/10/03 16:55:44;;;;;;;;;;;;;;;;;;6249327;23;19919;-95
2023/10/03 16:58:12;;;;;;;;;;;;;;;;;;6250931;23;19912;-95
2023/10/03 17:00:41;;;;;;;;;;;;;;;;;;6259200;23;19995;-96
2023/10/03 17:03:07;;;;;;;;;;;;;;;;;;6238837;22;19922;-93
2023/10/03 17:08:15;;;;;;;;;;;;;;;;;;6276961;22;20270;-96
2023/10/03 17:10:41;;;;;;;;;;;;;;;;;;6293789;22;19907;-95
2023/10/03 17:13:07;;;;;;;;;;;;;;;;;;6288829;22;19932;-95
2023/10/03 17:15:34;;;;;;;;;;;;;;;;;;6285287;22;20274;-92
2023/10/03 17:18:00;;;;;;;;;;;;;;;;;;6283910;22;19911;-94
2023/10/03 17:20:31;;;;;;;;;;;;;;;;;;6285448;22;19911;-93
2023/10/03 17:22:57;;;;;;;;;;;;;;;;;;6287449;22;19903;-96
2023/10/03 17:25:24;;;;;;;;;;;;;;;;;;6296134;22;19914;-96
2023/10/03 17:36:33;;;;;;;;;;;;;;;;;;6183300;22;19927;-96
2023/10/03 17:50:02;;;;;;;;;;;;;;;;;;6318135;22;19955;-96
2023/10/03 17:58:04;;;;;;;;;;;;;;;;;;6311743;22;19918;-96
2023/10/03 18:00:32;;;;;;;;;;;;;;;;;;6289589;22;20131;-94
2023/10/03 18:03:06;;;;;;;;;;;;;;;;;;6304456;22;19917;-96
2023/10/03 18:05:51;;;;;;;;;;;;;;;;;;6319313;22;19926;-96
2023/10/03 18:08:56;;;;;;;;;;;;;;;;;;6311901;22;19909;-96
2023/10/03 18:11:30;;;;;;;;;;;;;;;;;;6312412;22;20361;-96
2023/10/03 18:14:16;;;;;;;;;;;;;;;;;;6289621;22;19903;-96
2023/10/03 18:16:48;;;;;;;;;;;;;;;;;;6293370;22;19907;-96
2023/10/03 18:19:24;;;;;;;;;;;;;;;;;;6319248;22;19964;-96
2023/10/03 18:22:00;;;;;;;;;;;;;;;;;;;;;
2023/10/03 18:24:29;;;;;;;;;;;;;;;;;;6311553;22;19978;-95
2023/10/03 18:29:52;;;;;;;;;;;;;;;;;;6205864;22;19947;-95
2023/10/03 18:32:39;;;;;;;;;;;;;;;;;;6282966;22;19910;-96
2023/10/03 18:35:06;;;;;;;;;;;;;;;;;;6293936;22;20025;-96
2023/10/03 18:37:45;;;;;;;;;;;;;;;;;;;;;
2023/10/03 18:40:33;;;;;;;;;;;;;;;;;;6191644;23;19928;-96
2023/10/03 18:48:51;;;;;;;;;;;;;;;;;;;;;
2023/10/03 18:51:21;;;;;;;;;;;;;;;;;;6190519;23;19947;-95
2023/10/03 18:59:37;;;;;;;;;;;;;;;;;;6131907;23;19913;-95
2023/10/03 19:03:04;;;;;;;;;;;;;;;;;;6254751;22;19910;-96
2023/10/03 19:08:01;;;;;;;;;;;;;;;;;;6159539;23;19904;-95
2023/10/03 19:21:32;;;;;;;;;;;;;;;;;;6156347;23;19984;-96
2023/10/03 19:26:46;;;;;;;;;;;;;;;;;;6098704;23;19905;-96
2023/10/03 22:09:24;;;;;;;;;;;;;;;;;;6283917;22;19965;-96
2023/10/03 22:31:42;;;;;;;;;;;;;;;;;;6113546;23;19961;-95
2023/10/03 22:37:05;;;;;;;;;;;;;;;;;;6101380;23;19940;-96
2023/10/03 22:45:00;;;;;;;;;;;;;;;;;;6084618;23;19912;-95
